createdAt,value
2022-08-25T00:00:42.771Z,101996.59
2022-08-25T00:04:08.850Z,102005.72
2022-08-25T00:07:31.312Z,102000.66
2022-08-25T00:11:03.068Z,102001.81
2022-08-25T00:14:28.064Z,101992.19
2022-08-25T00:17:50.541Z,101989.63
2022-08-25T00:21:13.431Z,101985.69
2022-08-25T00:24:35.130Z,101986.03
2022-08-25T00:27:59.168Z,101988.22
2022-08-25T00:31:24.116Z,101986.66
2022-08-25T00:35:00.822Z,101987.00
2022-08-25T00:38:22.453Z,101988.00
2022-08-25T00:41:44.875Z,101989.00
2022-08-25T00:45:09.932Z,101986.31
2022-08-25T00:48:31.820Z,101991.72
2022-08-25T00:51:59.996Z,101991.03
2022-08-25T00:55:26.656Z,101990.34
2022-08-25T00:58:48.770Z,101990.34
2022-08-25T01:02:13.955Z,101985.94
2022-08-25T01:05:36.875Z,101989.13
2022-08-25T01:08:58.670Z,101997.22
2022-08-25T01:12:21.411Z,101989.28
2022-08-25T01:15:43.633Z,101995.69
2022-08-25T01:19:09.146Z,101980.66
2022-08-25T01:22:39.000Z,101978.13
2022-08-25T01:26:06.731Z,101978.13
2022-08-25T01:29:29.185Z,101982.84
2022-08-25T01:32:50.922Z,101976.56
2022-08-25T01:36:12.550Z,101978.44
2022-08-25T01:39:37.347Z,101975.75
2022-08-25T01:43:07.874Z,101978.44
2022-08-25T01:46:29.844Z,101973.72
2022-08-25T01:49:51.451Z,101967.81
2022-08-25T01:53:20.318Z,101973.22
2022-08-25T01:56:43.961Z,101967.69
2022-08-25T02:00:06.838Z,101974.94
2022-08-25T02:03:32.751Z,101975.47
2022-08-25T02:06:54.689Z,101970.75
2022-08-25T02:10:16.597Z,101968.88
2022-08-25T02:13:40.464Z,101967.03
2022-08-25T02:17:02.142Z,101969.19
2022-08-25T02:20:24.778Z,101962.63
2022-08-25T02:23:46.649Z,101954.91
2022-08-25T02:27:08.572Z,101959.97
2022-08-25T02:30:31.936Z,101950.72
2022-08-25T02:33:55.159Z,101945.81
2022-08-25T02:37:17.246Z,101942.09
2022-08-25T02:40:39.091Z,101941.59
2022-08-25T02:44:01.862Z,101944.31
2022-08-25T02:47:26.923Z,101949.19
2022-08-25T02:50:51.643Z,101948.19
2022-08-25T02:54:14.141Z,101950.75
2022-08-25T02:57:36.119Z,101948.88
2022-08-25T03:00:57.935Z,101950.41
2022-08-25T03:04:20.890Z,101948.25
2022-08-25T03:07:43.662Z,101936.44
2022-08-25T03:11:07.285Z,101945.22
2022-08-25T03:14:28.859Z,101934.34
2022-08-25T03:17:50.705Z,101937.22
2022-08-25T03:21:15.784Z,101937.38
2022-08-25T03:24:38.047Z,101936.22
2022-08-25T03:27:59.761Z,101934.88
2022-08-25T03:31:22.092Z,101932.88
2022-08-25T03:34:43.730Z,101940.16
2022-08-25T03:38:07.518Z,101943.53
2022-08-25T03:41:32.608Z,101928.81
2022-08-25T03:44:54.671Z,101934.41
2022-08-25T03:48:18.125Z,101932.38
2022-08-25T03:51:42.974Z,101937.91
2022-08-25T03:55:08.811Z,101940.63
2022-08-25T03:58:30.609Z,101938.44
2022-08-25T04:01:55.112Z,101943.69
2022-08-25T04:05:17.260Z,101935.56
2022-08-25T04:08:39.569Z,101941.50
2022-08-25T04:12:03.410Z,101938.63
2022-08-25T04:15:28.539Z,101939.50
2022-08-25T04:18:52.865Z,101937.78
2022-08-25T04:22:14.893Z,101936.09
2022-08-25T04:25:36.781Z,101926.97
2022-08-25T04:29:01.421Z,101933.41
2022-08-25T04:32:23.085Z,101936.44
2022-08-25T04:35:48.798Z,101935.56
2022-08-25T04:39:10.893Z,101942.16
2022-08-25T04:42:32.943Z,101941.09
2022-08-25T04:45:56.557Z,101936.56
2022-08-25T04:49:18.193Z,101939.06
2022-08-25T04:52:40.358Z,101940.16
2022-08-25T04:56:03.926Z,101938.97
2022-08-25T04:59:27.369Z,101943.03
2022-08-25T05:02:55.457Z,101934.41
2022-08-25T05:06:17.295Z,101932.38
2022-08-25T05:09:39.324Z,101935.56
2022-08-25T05:13:01.230Z,101935.75
2022-08-25T05:16:25.040Z,101943.84
2022-08-25T05:19:48.371Z,101947.75
2022-08-25T05:23:10.644Z,101951.81
2022-08-25T05:26:33.978Z,101952.03
2022-08-25T05:29:55.461Z,101938.19
2022-08-25T05:33:18.481Z,101947.53
2022-08-25T05:36:43.588Z,101949.03
2022-08-25T05:40:07.296Z,101946.00
2022-08-25T05:43:29.010Z,101947.38
2022-08-25T05:46:51.423Z,101950.59
2022-08-25T05:50:13.744Z,101958.38
2022-08-25T05:53:38.417Z,101951.81
2022-08-25T05:57:01.155Z,101949.78
2022-08-25T06:00:23.620Z,101954.84
2022-08-25T06:03:44.746Z,101954.53
2022-08-25T06:07:06.622Z,101957.91
2022-08-25T06:10:30.194Z,101958.94
2022-08-25T06:13:52.266Z,101957.75
2022-08-25T06:17:14.391Z,101952.50
2022-08-25T06:20:37.145Z,101957.78
2022-08-25T06:23:59.062Z,101953.03
2022-08-25T06:27:22.479Z,101941.03
2022-08-25T06:30:44.569Z,101950.50
2022-08-25T06:34:06.460Z,101955.75
2022-08-25T06:37:28.039Z,101951.88
2022-08-25T06:40:52.108Z,101944.25
2022-08-25T06:44:15.072Z,101954.91
2022-08-25T06:47:36.984Z,101953.56
2022-08-25T06:50:58.629Z,101946.78
2022-08-25T06:54:20.650Z,101950.53
2022-08-25T06:57:42.300Z,101956.63
2022-08-25T07:01:15.812Z,101960.72
2022-08-25T07:04:42.300Z,101957.81
2022-08-25T07:08:04.532Z,101955.63
2022-08-25T07:11:26.507Z,101958.00
2022-08-25T07:15:03.460Z,101955.63
2022-08-25T07:18:27.146Z,101959.00
2022-08-25T07:21:52.163Z,101958.66
2022-08-25T07:25:14.322Z,101963.38
2022-08-25T07:28:39.905Z,101954.91
2022-08-25T07:32:09.334Z,101951.34
2022-08-25T07:35:37.491Z,101951.88
2022-08-25T07:38:59.779Z,101946.44
2022-08-25T07:42:21.980Z,101951.69
2022-08-25T07:45:49.184Z,101944.41
2022-08-25T07:49:16.704Z,101950.16
2022-08-25T07:52:40.515Z,101935.22
2022-08-25T07:59:30.071Z,101926.09
2022-08-25T08:02:52.108Z,101932.84
2022-08-25T08:06:17.760Z,101935.50
2022-08-25T08:09:41.763Z,101936.50
2022-08-25T08:13:07.118Z,101932.78
2022-08-25T08:16:31.032Z,101935.63
2022-08-25T08:19:54.476Z,101936.53
2022-08-25T08:23:16.779Z,101938.88
2022-08-25T08:26:57.389Z,101933.09
2022-08-25T08:30:21.627Z,101929.03
2022-08-25T08:33:45.445Z,101922.72
2022-08-25T08:37:07.675Z,101929.31
2022-08-25T08:40:37.501Z,101929.84
2022-08-25T08:44:08.897Z,101922.16
2022-08-25T08:47:44.668Z,101918.56
2022-08-25T08:51:20.635Z,101921.44
2022-08-25T08:54:48.204Z,101910.03
2022-08-25T08:58:15.530Z,101907.81
2022-08-25T09:01:46.819Z,101910.47
2022-08-25T09:05:19.237Z,101909.56
2022-08-25T09:08:44.942Z,101901.34
2022-08-25T09:12:13.392Z,101897.09
2022-08-25T09:15:59.230Z,101899.44
2022-08-25T09:19:41.905Z,101899.41
2022-08-25T09:23:15.520Z,101904.09
2022-08-25T09:26:49.829Z,101893.50
2022-08-25T09:30:14.502Z,101892.41
2022-08-25T09:33:36.538Z,101898.81
2022-08-25T09:37:00.234Z,101890.94
2022-08-25T09:40:23.194Z,101886.19
2022-08-25T09:43:53.346Z,101884.41
2022-08-25T09:47:23.269Z,101880.38
2022-08-25T09:50:46.775Z,101880.94
2022-08-25T09:54:21.023Z,101876.25
2022-08-25T09:57:52.912Z,101863.44
2022-08-25T10:01:17.631Z,101864.75
2022-08-25T10:04:41.201Z,101861.53
2022-08-25T10:08:05.698Z,101853.31
2022-08-25T10:11:39.310Z,101843.19
2022-08-25T10:15:01.134Z,101851.06
2022-08-25T10:18:26.674Z,101843.16
2022-08-25T10:22:04.742Z,101843.81
2022-08-25T10:25:31.271Z,101843.25
2022-08-25T10:29:07.518Z,101841.19
2022-08-25T10:32:44.696Z,101845.59
2022-08-25T10:36:15.793Z,101837.88
2022-08-25T10:39:44.408Z,101841.72
2022-08-25T10:43:11.310Z,101835.88
2022-08-25T10:46:49.971Z,101833.56
2022-08-25T10:50:30.507Z,101836.38
2022-08-25T10:53:58.326Z,101826.78
2022-08-25T10:57:29.295Z,101838.66
2022-08-25T11:01:00.462Z,101824.00
2022-08-25T11:04:29.730Z,101815.09
2022-08-25T11:08:02.030Z,101812.16
2022-08-25T11:11:36.865Z,101803.25
2022-08-25T11:15:03.230Z,101801.19
2022-08-25T11:18:31.782Z,101795.09
2022-08-25T11:22:02.974Z,101796.84
2022-08-25T11:25:30.419Z,101800.03
2022-08-25T11:28:59.922Z,101795.41
2022-08-25T11:32:24.799Z,101788.53
2022-08-25T11:35:54.389Z,101791.25
2022-08-25T11:39:34.002Z,101791.91
2022-08-25T11:43:08.494Z,101789.44
2022-08-25T11:46:47.756Z,101781.53
2022-08-25T11:50:30.267Z,101779.44
2022-08-25T11:54:14.662Z,101771.72
2022-08-25T11:57:39.423Z,101774.66
2022-08-25T12:01:02.569Z,101775.94
2022-08-25T12:04:44.440Z,101759.88
2022-08-25T12:08:25.749Z,101761.16
2022-08-25T12:11:51.327Z,101755.97
2022-08-25T12:15:23.566Z,101759.56
2022-08-25T12:18:46.865Z,101743.84
2022-08-25T12:22:55.160Z,101747.44
2022-08-25T12:26:28.902Z,101744.53
2022-08-25T12:29:54.855Z,101734.31
2022-08-25T12:33:30.229Z,101732.22
2022-08-25T12:37:00.770Z,101733.75
2022-08-25T12:40:27.859Z,101728.09
2022-08-25T12:43:52.395Z,101721.81
2022-08-25T12:47:33.818Z,101721.84
2022-08-25T12:51:01.785Z,101718.47
2022-08-25T12:54:33.277Z,101716.22
2022-08-25T12:58:01.398Z,101707.41
2022-08-25T13:01:36.350Z,101700.28
2022-08-25T13:05:40.925Z,101703.84
2022-08-25T13:09:59.676Z,101689.59
2022-08-25T13:13:49.156Z,101688.97
2022-08-25T13:17:12.103Z,101679.94
2022-08-25T13:20:35.870Z,101688.53
2022-08-25T13:24:04.637Z,101685.59
2022-08-25T13:27:31.220Z,101685.59
2022-08-25T13:31:07.626Z,101683.69
2022-08-25T13:34:35.120Z,101681.81
2022-08-25T13:38:13.791Z,101670.03
2022-08-25T13:41:35.453Z,101663.31
2022-08-25T13:45:00.374Z,101667.75
2022-08-25T13:48:35.558Z,101670.44
2022-08-25T13:51:57.609Z,101665.41
2022-08-25T13:55:27.611Z,101663.50
2022-08-25T13:58:50.368Z,101655.09
2022-08-25T14:02:15.277Z,101656.16
2022-08-25T14:05:45.611Z,101651.13
2022-08-25T14:09:16.652Z,101647.97
2022-08-25T14:12:41.600Z,101644.81
2022-08-25T14:16:13.759Z,101638.72
2022-08-25T14:19:45.814Z,101640.84
2022-08-25T14:23:16.294Z,101645.00
2022-08-25T14:26:53.928Z,101640.81
2022-08-25T14:30:16.239Z,101628.00
2022-08-25T14:33:55.303Z,101618.31
2022-08-25T14:37:21.012Z,101614.72
2022-08-25T14:40:48.078Z,101610.28
2022-08-25T14:44:11.604Z,101614.66
2022-08-25T14:47:33.586Z,101605.38
2022-08-25T14:50:57.793Z,101601.34
2022-08-25T14:54:23.677Z,101596.25
2022-08-25T14:57:45.743Z,101594.66
2022-08-25T15:01:08.390Z,101595.91
2022-08-25T15:04:31.356Z,101581.47
2022-08-25T15:08:12.245Z,101581.38
2022-08-25T15:11:41.458Z,101571.94
2022-08-25T15:15:04.346Z,101572.72
2022-08-25T15:18:26.931Z,101571.69
2022-08-25T15:21:49.655Z,101572.63
2022-08-25T15:25:11.601Z,101570.56
2022-08-25T15:28:34.710Z,101568.84
2022-08-25T15:31:57.265Z,101569.63
2022-08-25T15:35:19.750Z,101564.81
2022-08-25T15:38:44.444Z,101564.03
2022-08-25T15:42:07.022Z,101563.69
2022-08-25T15:45:30.348Z,101558.13
2022-08-25T15:48:52.700Z,101552.94
2022-08-25T15:52:14.608Z,101551.03
2022-08-25T15:55:39.634Z,101545.69
2022-08-25T15:59:08.659Z,101549.00
2022-08-25T16:02:33.356Z,101541.63
2022-08-25T16:05:55.102Z,101536.25
2022-08-25T16:09:16.536Z,101533.50
2022-08-25T16:12:45.455Z,101516.69
2022-08-25T16:16:08.052Z,101521.22
2022-08-25T16:19:33.446Z,101525.06
2022-08-25T16:23:00.511Z,101515.16
2022-08-25T16:26:22.737Z,101518.59
2022-08-25T16:29:45.609Z,101513.13
2022-08-25T16:33:08.417Z,101517.75
2022-08-25T16:36:32.782Z,101511.56
2022-08-25T16:39:54.714Z,101504.19
2022-08-25T16:43:17.715Z,101505.47
2022-08-25T16:46:40.790Z,101503.44
2022-08-25T16:50:03.565Z,101506.91
2022-08-25T16:53:44.926Z,101498.06
2022-08-25T16:57:10.633Z,101506.16
2022-08-25T17:00:32.601Z,101500.16
2022-08-25T17:03:55.841Z,101496.66
2022-08-25T17:07:23.750Z,101488.63
2022-08-25T17:10:47.851Z,101490.25
2022-08-25T17:14:11.346Z,101487.84
2022-08-25T17:17:36.010Z,101490.50
2022-08-25T17:21:02.043Z,101492.13
2022-08-25T17:24:29.354Z,101484.44
2022-08-25T17:27:55.040Z,101490.44
2022-08-25T17:31:17.227Z,101490.16
2022-08-25T17:34:39.121Z,101494.47
2022-08-25T17:38:00.903Z,101494.59
2022-08-25T17:41:22.915Z,101492.81
2022-08-25T17:44:46.923Z,101487.88
2022-08-25T17:48:09.970Z,101489.47
2022-08-25T17:51:32.040Z,101501.34
2022-08-25T17:54:55.099Z,101495.97
2022-08-25T17:58:21.250Z,101492.69
2022-08-25T18:01:44.544Z,101499.31
2022-08-25T18:05:07.766Z,101503.78
2022-08-25T18:08:34.868Z,101498.63
2022-08-25T18:11:57.376Z,101496.19
2022-08-25T18:15:19.835Z,101496.88
2022-08-25T18:18:42.781Z,101498.81
2022-08-25T18:22:06.208Z,101503.66
2022-08-25T18:25:28.834Z,101507.47
2022-08-25T18:28:50.777Z,101514.81
2022-08-25T18:32:13.206Z,101512.28
2022-08-25T18:35:36.626Z,101518.81
2022-08-25T18:39:17.076Z,101517.75
2022-08-25T18:42:38.627Z,101519.00
2022-08-25T18:46:00.756Z,101518.75
2022-08-25T18:49:22.770Z,101517.47
2022-08-25T18:52:50.308Z,101517.22
2022-08-25T18:56:17.078Z,101516.13
2022-08-25T18:59:39.460Z,101521.78
2022-08-25T19:03:02.259Z,101529.25
2022-08-25T19:06:24.781Z,101522.50
2022-08-25T19:09:47.901Z,101522.84
2022-08-25T19:13:13.048Z,101521.53
2022-08-25T19:16:38.326Z,101529.03
2022-08-25T19:20:00.105Z,101534.41
2022-08-25T19:23:23.231Z,101530.81
2022-08-25T19:26:46.646Z,101538.09
2022-08-25T19:30:11.593Z,101534.88
2022-08-25T19:33:43.941Z,101543.16
2022-08-25T19:37:07.408Z,101539.56
2022-08-25T19:40:30.906Z,101540.31
2022-08-25T19:43:56.379Z,101534.19
2022-08-25T19:47:20.294Z,101538.72
2022-08-25T19:50:43.654Z,101531.53
2022-08-25T19:54:05.913Z,101528.78
2022-08-25T19:57:42.264Z,101530.38
2022-08-25T20:01:07.392Z,101541.63
2022-08-25T20:04:29.578Z,101539.09
2022-08-25T20:07:52.951Z,101537.16
2022-08-25T20:11:14.821Z,101539.78
2022-08-25T20:14:36.644Z,101548.72
2022-08-25T20:18:00.788Z,101543.03
2022-08-25T20:21:25.117Z,101540.03
2022-08-25T20:24:51.040Z,101546.25
2022-08-25T20:28:18.669Z,101552.19
2022-08-25T20:31:41.039Z,101546.50
2022-08-25T20:35:09.780Z,101545.38
2022-08-25T20:38:35.259Z,101547.81
2022-08-25T20:41:57.445Z,101537.56
2022-08-25T20:45:21.877Z,101541.47
2022-08-25T20:48:45.723Z,101543.38
2022-08-25T20:52:08.866Z,101527.81
2022-08-25T20:55:31.486Z,101536.53
2022-08-25T20:58:53.583Z,101535.03
2022-08-25T21:02:15.378Z,101536.28
2022-08-25T21:05:40.470Z,101541.38
2022-08-25T21:09:06.319Z,101538.41
2022-08-25T21:12:34.791Z,101542.53
2022-08-25T21:15:56.890Z,101539.34
2022-08-25T21:19:26.364Z,101540.75
2022-08-25T21:22:55.791Z,101530.47
2022-08-25T21:26:21.954Z,101533.72
2022-08-25T21:29:44.608Z,101535.13
2022-08-25T21:33:13.176Z,101530.25
2022-08-25T21:36:35.748Z,101522.66
2022-08-25T21:39:58.106Z,101532.00
2022-08-25T21:43:21.487Z,101530.69
2022-08-25T21:46:53.903Z,101524.44
2022-08-25T21:50:16.293Z,101531.06
2022-08-25T21:53:38.937Z,101528.72
2022-08-25T21:57:02.785Z,101523.66
2022-08-25T22:00:26.122Z,101524.69
2022-08-25T22:03:48.633Z,101521.31
2022-08-25T22:07:10.900Z,101523.84
2022-08-25T22:10:32.422Z,101519.63
2022-08-25T22:13:55.035Z,101513.19
2022-08-25T22:17:21.161Z,101509.63
2022-08-25T22:20:46.482Z,101515.91
2022-08-25T22:24:08.812Z,101503.38
2022-08-25T22:27:31.715Z,101498.78
2022-08-25T22:30:53.858Z,101504.88
2022-08-25T22:34:17.489Z,101498.44
2022-08-25T22:37:39.533Z,101497.59
2022-08-25T22:41:03.474Z,101490.88
2022-08-25T22:44:26.190Z,101489.19
2022-08-25T22:47:48.561Z,101488.31
2022-08-25T22:51:14.053Z,101484.97
2022-08-25T22:54:37.565Z,101483.09
2022-08-25T22:57:59.721Z,101478.72
2022-08-25T23:01:22.258Z,101478.72
2022-08-25T23:04:43.854Z,101477.03
2022-08-25T23:08:07.753Z,101474.31
2022-08-25T23:11:29.878Z,101473.28
2022-08-25T23:14:53.326Z,101470.38
2022-08-25T23:18:15.755Z,101468.53
2022-08-25T23:21:56.859Z,101465.16
2022-08-25T23:25:21.083Z,101463.66
2022-08-25T23:28:43.145Z,101456.75
2022-08-25T23:32:07.346Z,101456.09
2022-08-25T23:35:30.073Z,101457.47
2022-08-25T23:38:52.027Z,101458.50
2022-08-25T23:42:15.182Z,101448.88
2022-08-25T23:45:37.202Z,101449.06
2022-08-25T23:48:59.429Z,101444.50
2022-08-25T23:52:21.627Z,101454.47
2022-08-25T23:55:48.874Z,101446.72
2022-08-25T23:59:16.488Z,101447.94
